createdAt,value
2022-10-31T00:00:28.383Z,101337.09
2022-10-31T00:02:54.753Z,101387.16
2022-10-31T00:05:21.798Z,101375.47
2022-10-31T00:07:48.349Z,101410.06
2022-10-31T00:10:14.779Z,101402.16
2022-10-31T00:12:41.185Z,101366.47
2022-10-31T00:15:07.764Z,101388.78
2022-10-31T00:17:36.519Z,101379.00
2022-10-31T00:20:03.167Z,101389.63
2022-10-31T00:22:29.517Z,101379.06
2022-10-31T00:24:55.843Z,101349.94
2022-10-31T00:27:22.162Z,101333.56
2022-10-31T00:29:48.472Z,101356.41
2022-10-31T00:32:14.799Z,101343.19
2022-10-31T00:34:41.119Z,101347.66
2022-10-31T00:37:07.422Z,101351.22
2022-10-31T00:39:34.923Z,101371.00
2022-10-31T00:42:01.268Z,101313.25
2022-10-31T00:44:27.609Z,101384.22
2022-10-31T00:46:53.959Z,101348.22
2022-10-31T00:49:20.394Z,101335.31
2022-10-31T00:51:46.762Z,101371.59
2022-10-31T00:54:13.099Z,101338.09
2022-10-31T00:56:39.433Z,101371.22
2022-10-31T00:59:05.799Z,101342.84
2022-10-31T01:01:32.227Z,101354.19
2022-10-31T01:03:58.743Z,101381.69
2022-10-31T01:06:25.057Z,101350.63
2022-10-31T01:08:51.426Z,101365.19
2022-10-31T01:11:20.751Z,101368.53
2022-10-31T01:13:48.309Z,101366.13
2022-10-31T01:16:17.261Z,101343.94
2022-10-31T01:18:44.084Z,101376.81
2022-10-31T01:21:16.131Z,101370.88
2022-10-31T01:23:42.987Z,101370.09
2022-10-31T01:26:10.774Z,101368.53
2022-10-31T01:28:39.401Z,101324.97
2022-10-31T01:31:09.214Z,101345.06
2022-10-31T01:33:36.662Z,101304.50
2022-10-31T01:36:17.617Z,101298.59
2022-10-31T01:38:44.028Z,101349.78
2022-10-31T01:41:13.309Z,101359.50
2022-10-31T01:43:54.598Z,101377.59
2022-10-31T01:46:36.525Z,101375.97
2022-10-31T01:49:06.552Z,101361.63
2022-10-31T01:51:37.688Z,101378.28
2022-10-31T01:54:11.561Z,101290.16
2022-10-31T01:56:41.728Z,101374.81
2022-10-31T01:59:12.084Z,101370.28
2022-10-31T02:01:39.202Z,101351.50
2022-10-31T02:04:06.907Z,101330.47
2022-10-31T02:06:49.588Z,101353.72
2022-10-31T02:09:16.121Z,101388.56
2022-10-31T02:11:44.009Z,101351.50
2022-10-31T02:14:10.743Z,101296.09
2022-10-31T02:16:37.056Z,101327.19
2022-10-31T02:19:08.734Z,101349.75
2022-10-31T02:22:03.213Z,101320.38
2022-10-31T02:25:05.265Z,101339.78
2022-10-31T02:28:02.461Z,101360.63
2022-10-31T02:30:54.630Z,101345.63
2022-10-31T02:33:26.743Z,101366.31
2022-10-31T02:36:06.169Z,101368.00
2022-10-31T02:38:48.125Z,101356.78
2022-10-31T02:41:25.985Z,101348.59
2022-10-31T02:44:10.812Z,101363.59
2022-10-31T02:46:50.944Z,101362.72
2022-10-31T02:49:26.289Z,101344.44
2022-10-31T02:51:52.703Z,101316.63
2022-10-31T02:54:22.319Z,101333.16
2022-10-31T02:56:52.172Z,101330.28
2022-10-31T02:59:18.732Z,101354.69
2022-10-31T03:02:03.444Z,101332.22
2022-10-31T03:04:48.302Z,101313.28
2022-10-31T03:07:32.861Z,101350.34
2022-10-31T03:10:14.829Z,101353.03
2022-10-31T03:12:48.570Z,101254.00
2022-10-31T03:15:24.048Z,101283.81
2022-10-31T03:17:59.204Z,101342.28
2022-10-31T03:20:35.396Z,101328.38
2022-10-31T03:23:05.214Z,101367.06
2022-10-31T03:25:35.283Z,101332.22
2022-10-31T03:28:05.439Z,101316.63
2022-10-31T03:30:36.028Z,101364.94
2022-10-31T03:33:07.374Z,101299.97
2022-10-31T03:35:35.784Z,101281.09
2022-10-31T03:38:06.974Z,101321.22
2022-10-31T03:40:37.697Z,101328.81
2022-10-31T03:43:13.758Z,101330.25
2022-10-31T04:01:18.017Z,101339.16
2022-10-31T04:03:45.951Z,101326.25
2022-10-31T04:06:15.771Z,101322.72
2022-10-31T04:08:56.761Z,101329.81
2022-10-31T04:11:29.299Z,101303.84
2022-10-31T04:13:57.708Z,101332.41
2022-10-31T04:16:26.487Z,101328.97
2022-10-31T04:18:53.060Z,101343.81
2022-10-31T04:21:19.427Z,101311.66
2022-10-31T04:23:45.823Z,101318.56
2022-10-31T04:26:13.391Z,101330.00
2022-10-31T04:28:39.923Z,101319.47
2022-10-31T04:31:06.397Z,101320.28
2022-10-31T04:33:32.702Z,101309.72
2022-10-31T04:35:59.058Z,101296.47
2022-10-31T04:38:25.520Z,101314.59
2022-10-31T04:40:51.860Z,101223.38
2022-10-31T04:45:49.783Z,101313.72
2022-10-31T04:48:16.349Z,101314.91
2022-10-31T04:50:42.782Z,101289.63
2022-10-31T04:53:09.201Z,101319.66
2022-10-31T04:55:36.817Z,101320.63
2022-10-31T04:58:04.327Z,101325.34
2022-10-31T05:00:30.997Z,101342.88
2022-10-31T05:02:59.172Z,101274.34
2022-10-31T05:05:28.985Z,101319.97
2022-10-31T05:07:56.479Z,101284.78
2022-10-31T05:10:25.239Z,101316.63
2022-10-31T05:12:58.354Z,101322.94
2022-10-31T05:15:26.900Z,101323.91
2022-10-31T05:17:54.491Z,101292.78
2022-10-31T05:20:24.028Z,101315.09
2022-10-31T05:22:53.433Z,101275.34
2022-10-31T05:25:22.156Z,101324.75
2022-10-31T05:27:50.568Z,101284.78
2022-10-31T05:30:36.614Z,101261.44
2022-10-31T05:33:03.242Z,101271.06
2022-10-31T05:35:32.645Z,101310.81
2022-10-31T05:37:59.607Z,101268.75
2022-10-31T05:40:27.714Z,101315.28
2022-10-31T05:42:56.302Z,101311.91
2022-10-31T05:45:23.763Z,101302.31
2022-10-31T05:47:54.782Z,101277.34
2022-10-31T05:50:22.309Z,101274.84
2022-10-31T05:52:48.739Z,101270.81
2022-10-31T05:55:15.154Z,101261.69
2022-10-31T05:57:41.457Z,101308.03
2022-10-31T06:00:08.691Z,101285.81
2022-10-31T06:02:35.463Z,101239.34
2022-10-31T06:05:02.688Z,101250.91
2022-10-31T06:07:33.943Z,101238.66
2022-10-31T06:10:00.433Z,101262.81
2022-10-31T06:12:26.811Z,101254.00
2022-10-31T06:14:53.132Z,101271.25
2022-10-31T06:17:19.462Z,101263.41
2022-10-31T06:19:45.855Z,101247.09
2022-10-31T06:22:12.408Z,101219.56
2022-10-31T06:24:39.326Z,101280.94
2022-10-31T06:27:07.154Z,101255.19
2022-10-31T06:29:33.531Z,101274.16
2022-10-31T06:31:59.876Z,101278.69
2022-10-31T06:34:26.184Z,101304.88
2022-10-31T06:36:52.597Z,101246.19
2022-10-31T06:39:18.946Z,101251.97
2022-10-31T06:41:48.613Z,101296.03
2022-10-31T06:44:15.018Z,101265.81
2022-10-31T06:46:41.362Z,101257.75
2022-10-31T06:49:07.656Z,101285.47
2022-10-31T06:51:34.023Z,101245.91
2022-10-31T06:54:00.347Z,101268.69
2022-10-31T06:56:26.784Z,101271.53
2022-10-31T06:58:53.188Z,101241.22
2022-10-31T07:01:19.647Z,101254.25
2022-10-31T07:03:46.430Z,101293.22
2022-10-31T07:06:14.008Z,101288.91
2022-10-31T07:08:40.689Z,101289.69
2022-10-31T07:11:06.996Z,101315.56
2022-10-31T07:13:33.694Z,101272.31
2022-10-31T07:16:02.474Z,101322.38
2022-10-31T07:18:29.188Z,101306.75
2022-10-31T07:20:55.716Z,101288.56
2022-10-31T07:23:22.836Z,101309.78
2022-10-31T07:25:49.157Z,101288.19
2022-10-31T07:28:15.714Z,101263.09
2022-10-31T07:30:42.039Z,101292.50
2022-10-31T07:33:09.366Z,101307.50
2022-10-31T07:35:36.290Z,101288.47
2022-10-31T07:38:13.815Z,101303.75
2022-10-31T07:40:41.206Z,101314.78
2022-10-31T07:43:10.151Z,101319.16
2022-10-31T07:45:39.523Z,101298.31
2022-10-31T07:48:06.541Z,101310.38
2022-10-31T07:50:36.752Z,101296.44
2022-10-31T07:53:11.736Z,101288.69
2022-10-31T07:55:38.741Z,101309.34
2022-10-31T07:58:06.395Z,101284.31
2022-10-31T08:00:34.747Z,101322.81
2022-10-31T08:03:03.826Z,101313.91
2022-10-31T08:05:31.762Z,101318.81
2022-10-31T08:07:59.098Z,101321.06
2022-10-31T08:10:27.079Z,101309.53
2022-10-31T08:12:58.312Z,101263.44
2022-10-31T08:15:25.261Z,101310.63
2022-10-31T08:17:51.668Z,101312.16
2022-10-31T08:20:18.993Z,101290.94
2022-10-31T08:22:53.845Z,101301.38
2022-10-31T08:25:20.168Z,101283.72
2022-10-31T08:27:51.564Z,101315.75
2022-10-31T08:30:18.652Z,101292.56
2022-10-31T08:32:46.215Z,101301.00
2022-10-31T08:35:12.666Z,101269.94
2022-10-31T08:37:38.989Z,101235.22
2022-10-31T08:40:07.456Z,101262.50
2022-10-31T08:42:33.900Z,101256.69
2022-10-31T08:45:00.289Z,101281.50
2022-10-31T08:47:26.754Z,101279.47
2022-10-31T08:49:53.056Z,101307.78
2022-10-31T08:52:19.375Z,101272.94
2022-10-31T08:54:45.688Z,101271.03
2022-10-31T08:57:12.000Z,101258.06
2022-10-31T08:59:38.309Z,101258.38
2022-10-31T09:02:06.121Z,101259.03
2022-10-31T09:04:32.448Z,101229.47
2022-10-31T09:07:20.041Z,101209.38
2022-10-31T09:09:45.152Z,101217.69
2022-10-31T09:12:11.465Z,101149.31
2022-10-31T09:14:37.821Z,101241.00
2022-10-31T09:17:04.141Z,101210.59
2022-10-31T09:19:30.649Z,101197.28
2022-10-31T09:21:57.013Z,101193.50
2022-10-31T09:24:23.418Z,101231.16
2022-10-31T09:26:49.764Z,101216.22
2022-10-31T09:29:16.104Z,101200.81
2022-10-31T09:31:45.043Z,101189.19
2022-10-31T09:34:11.617Z,101165.50
2022-10-31T09:36:39.271Z,101214.44
2022-10-31T09:39:05.637Z,101196.91
2022-10-31T09:41:57.245Z,101209.53
2022-10-31T09:44:39.204Z,101192.94
2022-10-31T09:47:24.714Z,101214.31
2022-10-31T09:50:17.959Z,101150.84
2022-10-31T09:52:55.041Z,101184.88
2022-10-31T09:55:42.841Z,101188.06
2022-10-31T09:58:20.769Z,101184.25
2022-10-31T10:00:48.816Z,101191.34
2022-10-31T10:03:29.684Z,101179.84
2022-10-31T10:06:05.538Z,101167.94
2022-10-31T10:08:34.118Z,101175.63
2022-10-31T10:11:23.864Z,101198.53
2022-10-31T10:14:19.045Z,101153.34
2022-10-31T10:17:07.265Z,101175.78
2022-10-31T10:19:58.587Z,101174.06
2022-10-31T10:22:43.526Z,101166.69
2022-10-31T10:25:15.293Z,101158.28
2022-10-31T10:28:03.480Z,101150.03
2022-10-31T10:30:49.670Z,101095.25
2022-10-31T10:33:31.883Z,101101.97
2022-10-31T10:36:01.490Z,101078.78
2022-10-31T10:38:44.558Z,101116.38
2022-10-31T10:41:21.727Z,101091.81
2022-10-31T10:43:52.474Z,101148.03
2022-10-31T10:47:00.847Z,101160.66
2022-10-31T10:49:48.788Z,101160.91
2022-10-31T10:52:42.032Z,101096.63
2022-10-31T10:55:12.813Z,101150.78
2022-10-31T10:57:59.750Z,101150.78
2022-10-31T11:00:30.366Z,101079.50
2022-10-31T11:02:57.527Z,101070.38
2022-10-31T11:05:51.526Z,101124.41
2022-10-31T11:08:44.403Z,101114.00
2022-10-31T11:11:26.652Z,101115.94
2022-10-31T11:14:12.665Z,101121.25
2022-10-31T11:16:42.796Z,101073.97
2022-10-31T11:19:18.221Z,101118.34
2022-10-31T11:21:53.778Z,101110.19
2022-10-31T11:24:28.328Z,101017.09
2022-10-31T11:27:29.488Z,101085.97
2022-10-31T11:30:06.526Z,101095.84
2022-10-31T11:32:33.330Z,101023.38
2022-10-31T11:35:03.443Z,101028.78
2022-10-31T11:37:43.571Z,100997.81
2022-10-31T11:40:22.122Z,101036.28
2022-10-31T11:42:50.676Z,101011.47
2022-10-31T11:45:23.077Z,101048.75
2022-10-31T11:47:56.732Z,100977.94
2022-10-31T11:50:40.212Z,101037.97
2022-10-31T11:53:18.808Z,101025.94
2022-10-31T11:55:47.357Z,101006.09
2022-10-31T11:58:25.822Z,101029.34
2022-10-31T12:00:55.716Z,101010.63
2022-10-31T12:03:39.538Z,100958.78
2022-10-31T12:06:24.610Z,100963.13
2022-10-31T12:08:53.589Z,100984.97
2022-10-31T12:11:35.272Z,100982.59
2022-10-31T12:14:04.601Z,100993.91
2022-10-31T12:16:40.965Z,100978.50
2022-10-31T12:19:30.524Z,100986.03
2022-10-31T12:22:24.975Z,100932.34
2022-10-31T12:25:16.417Z,100975.75
2022-10-31T12:28:04.714Z,100963.38
2022-10-31T12:31:08.477Z,100970.25
2022-10-31T12:34:17.156Z,100895.34
2022-10-31T12:37:13.769Z,100898.22
2022-10-31T12:39:52.867Z,100883.16
2022-10-31T12:42:48.115Z,100921.53
2022-10-31T12:45:45.824Z,100870.03
2022-10-31T12:48:28.193Z,100912.78
2022-10-31T12:51:16.377Z,100902.91
2022-10-31T12:53:42.669Z,100900.06
2022-10-31T12:56:20.276Z,100898.00
2022-10-31T12:58:52.559Z,100880.47
2022-10-31T13:01:25.359Z,100896.84
2022-10-31T13:04:22.625Z,100833.78
2022-10-31T13:07:00.462Z,100893.75
2022-10-31T13:09:37.944Z,100863.06
2022-10-31T13:12:11.254Z,100876.41
2022-10-31T13:14:46.936Z,100837.84
2022-10-31T13:17:44.401Z,100865.94
2022-10-31T13:20:20.806Z,100871.56
2022-10-31T13:22:51.124Z,100852.53
2022-10-31T13:25:25.526Z,100819.13
2022-10-31T13:28:00.461Z,100850.38
2022-10-31T13:30:32.221Z,100827.78
2022-10-31T13:33:10.478Z,100832.44
2022-10-31T13:35:44.341Z,100825.22
2022-10-31T13:38:35.929Z,100813.28
2022-10-31T13:41:18.962Z,100820.78
2022-10-31T13:44:02.378Z,100785.69
2022-10-31T13:46:34.549Z,100802.25
2022-10-31T13:49:01.295Z,100774.19
2022-10-31T13:51:34.913Z,100761.53
2022-10-31T13:54:21.915Z,100809.47
2022-10-31T13:56:53.467Z,100780.38
2022-10-31T13:59:22.008Z,100797.88
2022-10-31T14:01:55.984Z,100786.88
2022-10-31T14:04:40.230Z,100780.00
2022-10-31T14:07:13.152Z,100735.50
2022-10-31T14:09:59.680Z,100775.06
2022-10-31T14:12:34.494Z,100740.72
2022-10-31T14:15:13.144Z,100752.44
2022-10-31T14:17:47.920Z,100743.34
2022-10-31T14:20:14.930Z,100750.19
2022-10-31T14:22:43.094Z,100731.53
2022-10-31T14:25:36.125Z,100736.31
2022-10-31T14:28:19.191Z,100714.22
2022-10-31T14:30:57.958Z,100708.06
2022-10-31T14:33:27.915Z,100735.66
2022-10-31T14:36:04.374Z,100745.50
2022-10-31T14:38:48.724Z,100745.59
2022-10-31T14:41:29.368Z,100743.34
2022-10-31T14:44:15.487Z,100739.53
2022-10-31T14:47:03.389Z,100733.00
2022-10-31T14:49:54.449Z,100726.53
2022-10-31T14:52:22.027Z,100709.94
2022-10-31T14:54:54.614Z,100669.25
2022-10-31T14:57:29.766Z,100722.88
2022-10-31T15:00:06.034Z,100711.72
2022-10-31T15:02:42.463Z,100712.59
2022-10-31T15:05:10.961Z,100700.44
2022-10-31T15:07:40.910Z,100662.59
2022-10-31T15:10:21.353Z,100684.84
2022-10-31T15:12:47.863Z,100697.00
2022-10-31T15:15:26.747Z,100662.25
2022-10-31T15:18:00.455Z,100674.22
2022-10-31T15:20:29.441Z,100657.28
2022-10-31T15:22:58.709Z,100655.75
2022-10-31T15:25:28.996Z,100665.47
2022-10-31T15:27:55.322Z,100647.41
2022-10-31T15:30:27.920Z,100653.50
2022-10-31T15:32:58.770Z,100657.47
2022-10-31T15:35:30.965Z,100656.63
2022-10-31T15:37:59.872Z,100664.69
2022-10-31T15:40:28.051Z,100657.88
2022-10-31T15:42:58.962Z,100610.13
2022-10-31T15:45:27.978Z,100635.03
2022-10-31T15:47:58.754Z,100638.22
2022-10-31T15:50:33.510Z,100633.25
2022-10-31T15:53:01.013Z,100650.53
2022-10-31T15:55:30.530Z,100641.22
2022-10-31T15:57:59.574Z,100635.91
2022-10-31T16:00:30.404Z,100626.66
2022-10-31T16:03:22.553Z,100641.56
2022-10-31T16:05:52.036Z,100637.34
2022-10-31T16:08:27.591Z,100600.53
2022-10-31T16:10:54.309Z,100645.50
2022-10-31T16:13:27.057Z,100651.47
2022-10-31T16:16:28.735Z,100645.56
2022-10-31T16:18:47.505Z,100646.34
2022-10-31T16:21:14.175Z,100597.63
2022-10-31T16:23:46.831Z,100615.47
2022-10-31T16:26:19.568Z,100632.81
2022-10-31T16:29:03.199Z,100596.59
2022-10-31T16:31:41.016Z,100595.59
2022-10-31T16:34:26.239Z,100607.13
2022-10-31T16:36:53.641Z,100633.03
2022-10-31T16:39:20.097Z,100621.75
2022-10-31T16:41:50.200Z,100590.94
2022-10-31T16:44:23.360Z,100566.00
2022-10-31T16:47:08.417Z,100599.75
2022-10-31T16:49:34.786Z,100618.13
2022-10-31T16:52:01.147Z,100571.97
2022-10-31T16:54:30.044Z,100618.13
2022-10-31T16:56:56.521Z,100602.44
2022-10-31T16:59:22.852Z,100595.41
2022-10-31T17:01:50.208Z,100607.53
2022-10-31T17:04:16.757Z,100586.09
2022-10-31T17:06:43.226Z,100604.47
2022-10-31T17:09:09.817Z,100611.66
2022-10-31T17:11:36.854Z,100592.66
2022-10-31T17:14:05.721Z,100579.84
2022-10-31T17:16:32.029Z,100580.34
2022-10-31T17:18:58.343Z,100562.72
2022-10-31T17:21:26.300Z,100609.25
2022-10-31T17:23:52.601Z,100607.72
2022-10-31T17:26:19.775Z,100611.16
2022-10-31T17:28:46.375Z,100591.78
2022-10-31T17:31:23.527Z,100607.13
2022-10-31T17:33:50.745Z,100611.50
2022-10-31T17:36:17.479Z,100578.81
2022-10-31T17:38:43.791Z,100592.00
2022-10-31T17:41:11.453Z,100587.03
2022-10-31T17:43:38.265Z,100574.59
2022-10-31T17:46:05.085Z,100564.44
2022-10-31T17:48:33.725Z,100582.66
2022-10-31T17:51:01.813Z,100568.38
2022-10-31T17:53:30.304Z,100557.75
2022-10-31T17:56:07.789Z,100569.56
2022-10-31T17:58:35.533Z,100574.19
2022-10-31T18:01:08.269Z,100578.38
2022-10-31T18:03:34.744Z,100566.00
2022-10-31T18:06:01.055Z,100549.81
2022-10-31T18:08:29.667Z,100529.28
2022-10-31T18:10:59.657Z,100548.53
2022-10-31T18:13:27.555Z,100545.13
2022-10-31T18:15:54.559Z,100575.56
2022-10-31T18:18:21.587Z,100582.06
2022-10-31T18:20:48.000Z,100557.78
2022-10-31T18:23:14.641Z,100553.66
2022-10-31T18:25:43.249Z,100575.97
2022-10-31T18:28:10.391Z,100569.66
2022-10-31T18:30:41.356Z,100543.31
2022-10-31T18:33:08.464Z,100557.16
2022-10-31T18:35:39.113Z,100544.06
2022-10-31T18:38:06.833Z,100529.00
2022-10-31T18:40:35.685Z,100553.66
2022-10-31T18:43:03.386Z,100542.16
2022-10-31T18:45:41.745Z,100508.13
2022-10-31T18:48:14.322Z,100536.84
2022-10-31T18:50:41.463Z,100554.72
2022-10-31T18:53:07.956Z,100531.69
2022-10-31T18:55:34.509Z,100534.44
2022-10-31T18:58:00.828Z,100542.91
2022-10-31T19:00:27.155Z,100538.53
2022-10-31T19:02:56.321Z,100546.78
2022-10-31T19:05:23.073Z,100514.25
2022-10-31T19:07:49.406Z,100548.66
2022-10-31T19:10:15.901Z,100505.53
2022-10-31T19:12:42.217Z,100512.53
2022-10-31T19:15:08.934Z,100542.44
2022-10-31T19:17:35.249Z,100540.28
2022-10-31T19:20:01.585Z,100539.78
2022-10-31T19:22:31.056Z,100526.34
2022-10-31T19:24:57.344Z,100537.38
2022-10-31T19:27:26.308Z,100504.69
2022-10-31T19:29:52.645Z,100467.19
2022-10-31T19:32:19.201Z,100515.25
2022-10-31T19:34:45.587Z,100506.72
2022-10-31T19:37:12.064Z,100485.50
2022-10-31T19:39:43.712Z,100508.56
2022-10-31T19:42:10.702Z,100514.66
2022-10-31T19:44:37.233Z,100473.81
2022-10-31T19:47:03.600Z,100447.44
2022-10-31T19:49:30.010Z,100508.22
2022-10-31T19:51:56.440Z,100482.53
2022-10-31T19:54:23.500Z,100507.03
2022-10-31T19:56:49.938Z,100476.25
2022-10-31T19:59:16.319Z,100489.91
2022-10-31T20:01:42.735Z,100480.84
2022-10-31T20:04:09.244Z,100508.06
2022-10-31T20:06:46.736Z,100449.00
2022-10-31T20:09:18.908Z,100482.63
2022-10-31T20:11:51.894Z,100490.22
2022-10-31T20:14:24.257Z,100457.34
2022-10-31T20:16:59.374Z,100471.13
2022-10-31T20:19:25.684Z,100483.84
2022-10-31T20:21:52.193Z,100469.00
2022-10-31T20:24:18.889Z,100466.38
2022-10-31T20:26:45.245Z,100440.13
2022-10-31T20:29:19.520Z,100439.84
2022-10-31T20:31:47.135Z,100469.06
2022-10-31T20:34:14.802Z,100467.19
2022-10-31T20:36:41.350Z,100441.84
2022-10-31T20:39:09.314Z,100449.94
2022-10-31T20:41:39.406Z,100455.25
2022-10-31T20:44:06.474Z,100422.03
2022-10-31T20:46:33.034Z,100450.72
2022-10-31T20:48:59.732Z,100473.31
2022-10-31T20:51:28.232Z,100452.28
2022-10-31T20:53:56.328Z,100449.41
2022-10-31T20:56:24.522Z,100375.00
2022-10-31T20:58:51.483Z,100425.34
2022-10-31T21:01:21.179Z,100420.47
2022-10-31T21:03:48.696Z,100441.31
2022-10-31T21:06:16.388Z,100440.59
2022-10-31T21:08:43.350Z,100406.09
2022-10-31T21:11:13.512Z,100404.63
2022-10-31T21:13:42.049Z,100423.03
2022-10-31T21:16:11.590Z,100429.34
2022-10-31T21:18:39.610Z,100431.72
2022-10-31T21:21:11.463Z,100378.59
2022-10-31T21:23:38.732Z,100425.03
2022-10-31T21:26:11.059Z,100414.81
2022-10-31T21:28:37.827Z,100426.75
2022-10-31T21:31:13.029Z,100395.84
2022-10-31T21:33:39.845Z,100422.28
2022-10-31T21:36:07.321Z,100408.91
2022-10-31T21:38:34.367Z,100428.66
2022-10-31T21:41:03.254Z,100429.59
2022-10-31T21:43:30.032Z,100424.47
2022-10-31T21:46:02.594Z,100405.19
2022-10-31T21:48:28.982Z,100382.94
2022-10-31T21:50:55.335Z,100405.53
2022-10-31T21:53:40.132Z,100371.53
2022-10-31T21:56:07.075Z,100393.03
2022-10-31T21:58:36.195Z,100382.25
2022-10-31T22:01:05.339Z,100389.63
2022-10-31T22:03:38.692Z,100372.38
2022-10-31T22:06:07.401Z,100377.34
2022-10-31T22:08:34.044Z,100377.66
2022-10-31T22:11:05.291Z,100382.78
2022-10-31T22:13:33.166Z,100392.72
2022-10-31T22:16:04.222Z,100333.59
2022-10-31T22:18:30.769Z,100368.31
2022-10-31T22:21:19.511Z,100394.97
2022-10-31T22:23:51.085Z,100385.78
2022-10-31T22:26:17.503Z,100395.69
2022-10-31T22:28:46.084Z,100390.72
2022-10-31T22:31:15.576Z,100389.53
2022-10-31T22:33:42.008Z,100357.91
2022-10-31T22:36:11.644Z,100394.97
2022-10-31T22:38:42.187Z,100395.84
2022-10-31T22:41:10.880Z,100397.72
2022-10-31T22:43:37.541Z,100366.75
2022-10-31T22:46:06.239Z,100382.16
2022-10-31T22:48:37.110Z,100370.28
2022-10-31T22:51:08.393Z,100400.97
2022-10-31T22:53:35.981Z,100397.56
2022-10-31T22:56:03.229Z,100375.31
2022-10-31T22:58:30.931Z,100392.09
2022-10-31T23:00:57.560Z,100392.25
2022-10-31T23:03:24.699Z,100368.16
2022-10-31T23:05:57.994Z,100366.13
2022-10-31T23:08:25.400Z,100337.00
2022-10-31T23:10:52.087Z,100382.78
2022-10-31T23:13:36.941Z,100340.84
2022-10-31T23:16:07.615Z,100378.16
2022-10-31T23:18:49.718Z,100344.53
2022-10-31T23:21:37.113Z,100348.88
2022-10-31T23:24:03.745Z,100360.84
2022-10-31T23:26:48.715Z,100340.88
2022-10-31T23:29:15.008Z,100333.34
2022-10-31T23:31:41.311Z,100307.06
2022-10-31T23:34:07.642Z,100337.50
2022-10-31T23:36:34.003Z,100341.47
2022-10-31T23:39:00.394Z,100342.72
2022-10-31T23:41:26.728Z,100318.16
2022-10-31T23:43:53.012Z,100342.41
2022-10-31T23:46:19.331Z,100347.88
2022-10-31T23:48:48.045Z,100341.38
2022-10-31T23:51:14.883Z,100334.97
2022-10-31T23:53:45.010Z,100316.78
2022-10-31T23:56:12.115Z,100300.72
2022-10-31T23:58:38.850Z,100329.22
